sensor_id;sensor_type;location;lat;lon;timestamp;pressure;altitude;pressure_sealevel;temperature;humidity
80323;BME280;69636;52.372;13.610;2023-07-30T00:00:02;100587.75;;;15.86;100.00
80323;BME280;69636;52.372;13.610;2023-07-30T00:02:29;100592.91;;;15.87;100.00
80323;BME280;69636;52.372;13.610;2023-07-30T00:04:57;100593.06;;;15.79;100.00
80323;BME280;69636;52.372;13.610;2023-07-30T00:07:24;100590.50;;;15.71;100.00
80323;BME280;69636;52.372;13.610;2023-07-30T00:09:53;100588.66;;;15.72;100.00
80323;BME280;69636;52.372;13.610;2023-07-30T00:12:20;100594.03;;;15.72;100.00
80323;BME280;69636;52.372;13.610;2023-07-30T00:14:47;100591.72;;;15.69;100.00
80323;BME280;69636;52.372;13.610;2023-07-30T00:17:14;100588.22;;;15.68;100.00
80323;BME280;69636;52.372;13.610;2023-07-30T00:19:42;100584.25;;;15.64;100.00
80323;BME280;69636;52.372;13.610;2023-07-30T00:22:09;100591.66;;;15.62;100.00
80323;BME280;69636;52.372;13.610;2023-07-30T00:24:36;100593.16;;;15.50;100.00
80323;BME280;69636;52.372;13.610;2023-07-30T00:27:06;100587.16;;;15.48;100.00
80323;BME280;69636;52.372;13.610;2023-07-30T00:29:33;100584.94;;;15.51;100.00
80323;BME280;69636;52.372;13.610;2023-07-30T00:32:01;100580.22;;;15.53;100.00
80323;BME280;69636;52.372;13.610;2023-07-30T00:34:28;100582.81;;;15.47;100.00
80323;BME280;69636;52.372;13.610;2023-07-30T00:36:55;100574.44;;;15.35;100.00
80323;BME280;69636;52.372;13.610;2023-07-30T00:39:23;100574.44;;;15.35;100.00
80323;BME280;69636;52.372;13.610;2023-07-30T00:41:50;100569.63;;;15.45;100.00
80323;BME280;69636;52.372;13.610;2023-07-30T00:44:19;100567.72;;;15.39;100.00
80323;BME280;69636;52.372;13.610;2023-07-30T00:46:46;100556.38;;;15.37;100.00
80323;BME280;69636;52.372;13.610;2023-07-30T00:49:13;100551.38;;;15.34;100.00
80323;BME280;69636;52.372;13.610;2023-07-30T00:51:41;100545.63;;;15.31;100.00
80323;BME280;69636;52.372;13.610;2023-07-30T00:54:09;100548.78;;;15.19;100.00
80323;BME280;69636;52.372;13.610;2023-07-30T00:56:37;100551.53;;;15.11;100.00
80323;BME280;69636;52.372;13.610;2023-07-30T00:59:05;100556.16;;;15.17;100.00
80323;BME280;69636;52.372;13.610;2023-07-30T01:01:37;100562.69;;;15.15;100.00
80323;BME280;69636;52.372;13.610;2023-07-30T01:04:06;100559.38;;;15.13;100.00
80323;BME280;69636;52.372;13.610;2023-07-30T01:06:34;100564.66;;;15.06;100.00
80323;BME280;69636;52.372;13.610;2023-07-30T01:09:01;100568.22;;;15.13;100.00
80323;BME280;69636;52.372;13.610;2023-07-30T01:11:31;100568.41;;;15.12;100.00
80323;BME280;69636;52.372;13.610;2023-07-30T01:13:59;100568.03;;;15.15;100.00
80323;BME280;69636;52.372;13.610;2023-07-30T01:16:36;100573.38;;;15.15;100.00
80323;BME280;69636;52.372;13.610;2023-07-30T01:19:05;100576.19;;;15.07;100.00
80323;BME280;69636;52.372;13.610;2023-07-30T01:21:34;100579.69;;;14.92;100.00
80323;BME280;69636;52.372;13.610;2023-07-30T01:24:02;100581.25;;;14.87;100.00
80323;BME280;69636;52.372;13.610;2023-07-30T01:26:30;100586.34;;;14.97;100.00
80323;BME280;69636;52.372;13.610;2023-07-30T01:29:00;100581.34;;;14.93;100.00
80323;BME280;69636;52.372;13.610;2023-07-30T01:31:32;100599.59;;;14.90;100.00
80323;BME280;69636;52.372;13.610;2023-07-30T01:34:03;100594.81;;;14.85;100.00
80323;BME280;69636;52.372;13.610;2023-07-30T01:36:31;100599.78;;;14.88;100.00
80323;BME280;69636;52.372;13.610;2023-07-30T01:39:01;100597.84;;;14.82;100.00
80323;BME280;69636;52.372;13.610;2023-07-30T01:41:29;100596.41;;;14.80;100.00
80323;BME280;69636;52.372;13.610;2023-07-30T01:43:56;100598.31;;;14.86;100.00
80323;BME280;69636;52.372;13.610;2023-07-30T01:46:23;100601.28;;;14.76;100.00
80323;BME280;69636;52.372;13.610;2023-07-30T01:48:50;100599.91;;;14.80;100.00
80323;BME280;69636;52.372;13.610;2023-07-30T01:51:18;100606.44;;;14.78;100.00
80323;BME280;69636;52.372;13.610;2023-07-30T01:53:45;100601.28;;;14.76;100.00
80323;BME280;69636;52.372;13.610;2023-07-30T01:56:14;100611.59;;;14.79;100.00
80323;BME280;69636;52.372;13.610;2023-07-30T01:58:41;100601.66;;;14.73;100.00
80323;BME280;69636;52.372;13.610;2023-07-30T02:01:09;100605.03;;;14.67;100.00
80323;BME280;69636;52.372;13.610;2023-07-30T02:03:36;100600.72;;;14.66;100.00
80323;BME280;69636;52.372;13.610;2023-07-30T02:06:04;100602.19;;;14.83;100.00
80323;BME280;69636;52.372;13.610;2023-07-30T02:08:32;100602.34;;;14.82;100.00
80323;BME280;69636;52.372;13.610;2023-07-30T02:10:59;100610.13;;;14.77;100.00
80323;BME280;69636;52.372;13.610;2023-07-30T02:13:28;100608.06;;;14.64;100.00
80323;BME280;69636;52.372;13.610;2023-07-30T02:15:55;100614.63;;;14.76;100.00
80323;BME280;69636;52.372;13.610;2023-07-30T02:18:22;100612.03;;;14.68;100.00
80323;BME280;69636;52.372;13.610;2023-07-30T02:20:50;100609.81;;;14.57;100.00
80323;BME280;69636;52.372;13.610;2023-07-30T02:23:17;100622.91;;;14.52;100.00
80323;BME280;69636;52.372;13.610;2023-07-30T02:25:44;100620.41;;;14.50;100.00
80323;BME280;69636;52.372;13.610;2023-07-30T02:28:11;100616.09;;;14.49;100.00
80323;BME280;69636;52.372;13.610;2023-07-30T02:30:43;100616.81;;;14.43;100.00
80323;BME280;69636;52.372;13.610;2023-07-30T02:33:10;100607.81;;;14.36;100.00
80323;BME280;69636;52.372;13.610;2023-07-30T02:35:37;100615.72;;;14.30;100.00
80323;BME280;69636;52.372;13.610;2023-07-30T02:38:05;100615.72;;;14.30;100.00
80323;BME280;69636;52.372;13.610;2023-07-30T02:40:32;100618.22;;;14.31;100.00
80323;BME280;69636;52.372;13.610;2023-07-30T02:42:59;100622.47;;;14.25;100.00
80323;BME280;69636;52.372;13.610;2023-07-30T02:45:27;100627.78;;;14.25;100.00
80323;BME280;69636;52.372;13.610;2023-07-30T02:47:55;100627.13;;;14.23;100.00
80323;BME280;69636;52.372;13.610;2023-07-30T02:50:23;100622.50;;;14.17;100.00
80323;BME280;69636;52.372;13.610;2023-07-30T02:52:50;100623.59;;;14.08;100.00
80323;BME280;69636;52.372;13.610;2023-07-30T02:55:17;100630.28;;;14.04;100.00
80323;BME280;69636;52.372;13.610;2023-07-30T02:57:45;100624.94;;;14.04;100.00
80323;BME280;69636;52.372;13.610;2023-07-30T03:00:12;100625.78;;;14.05;100.00
80323;BME280;69636;52.372;13.610;2023-07-30T03:02:40;100626.44;;;14.07;100.00
80323;BME280;69636;52.372;13.610;2023-07-30T03:05:09;100625.84;;;13.97;100.00
80323;BME280;69636;52.372;13.610;2023-07-30T03:07:36;100622.88;;;13.91;100.00
80323;BME280;69636;52.372;13.610;2023-07-30T03:10:04;100629.53;;;13.96;100.00
80323;BME280;69636;52.372;13.610;2023-07-30T03:12:31;100630.72;;;13.93;100.00
80323;BME280;69636;52.372;13.610;2023-07-30T03:14:58;100630.59;;;13.86;100.00
80323;BME280;69636;52.372;13.610;2023-07-30T03:17:25;100635.03;;;13.94;100.00
80323;BME280;69636;52.372;13.610;2023-07-30T03:19:53;100626.78;;;14.04;100.00
80323;BME280;69636;52.372;13.610;2023-07-30T03:22:22;100632.31;;;14.02;100.00
80323;BME280;69636;52.372;13.610;2023-07-30T03:24:49;100629.19;;;13.99;100.00
80323;BME280;69636;52.372;13.610;2023-07-30T03:27:16;100631.72;;;13.92;100.00
80323;BME280;69636;52.372;13.610;2023-07-30T03:29:43;100631.41;;;13.87;100.00
80323;BME280;69636;52.372;13.610;2023-07-30T03:32:11;100629.88;;;13.92;100.00
80323;BME280;69636;52.372;13.610;2023-07-30T03:34:38;100643.28;;;13.84;100.00
80323;BME280;69636;52.372;13.610;2023-07-30T03:37:05;100638.41;;;13.88;100.00
80323;BME280;69636;52.372;13.610;2023-07-30T03:39:34;100640.09;;;13.89;100.00
80323;BME280;69636;52.372;13.610;2023-07-30T03:42:02;100647.31;;;13.80;100.00
80323;BME280;69636;52.372;13.610;2023-07-30T03:44:29;100644.97;;;13.77;100.00
80323;BME280;69636;52.372;13.610;2023-07-30T03:46:56;100650.13;;;13.79;100.00
80323;BME280;69636;52.372;13.610;2023-07-30T03:49:24;100649.31;;;13.78;100.00
80323;BME280;69636;52.372;13.610;2023-07-30T03:51:52;100657.53;;;13.77;100.00
80323;BME280;69636;52.372;13.610;2023-07-30T03:54:19;100659.59;;;13.89;100.00
80323;BME280;69636;52.372;13.610;2023-07-30T03:56:47;100659.06;;;13.94;100.00
80323;BME280;69636;52.372;13.610;2023-07-30T03:59:15;100659.38;;;13.99;100.00
80323;BME280;69636;52.372;13.610;2023-07-30T04:01:42;100666.19;;;14.02;100.00
80323;BME280;69636;52.372;13.610;2023-07-30T04:04:09;100655.91;;;14.13;100.00
80323;BME280;69636;52.372;13.610;2023-07-30T04:06:37;100660.38;;;14.21;100.00
80323;BME280;69636;52.372;13.610;2023-07-30T04:09:05;100664.53;;;14.23;100.00
80323;BME280;69636;52.372;13.610;2023-07-30T04:11:32;100661.06;;;14.38;100.00
80323;BME280;69636;52.372;13.610;2023-07-30T04:14:00;100658.72;;;14.43;100.00
80323;BME280;69636;52.372;13.610;2023-07-30T04:16:28;100662.88;;;14.45;100.00
80323;BME280;69636;52.372;13.610;2023-07-30T04:18:55;100667.00;;;14.48;100.00
80323;BME280;69636;52.372;13.610;2023-07-30T04:21:22;100659.75;;;14.56;100.00
80323;BME280;69636;52.372;13.610;2023-07-30T04:23:49;100670.06;;;14.59;100.00
80323;BME280;69636;52.372;13.610;2023-07-30T04:26:17;100674.22;;;14.62;100.00
80323;BME280;69636;52.372;13.610;2023-07-30T04:28:44;100670.53;;;14.63;100.00
80323;BME280;69636;52.372;13.610;2023-07-30T04:31:13;100668.16;;;14.68;100.00
80323;BME280;69636;52.372;13.610;2023-07-30T04:33:40;100680.50;;;14.69;100.00
80323;BME280;69636;52.372;13.610;2023-07-30T04:36:07;100669.44;;;14.72;100.00
80323;BME280;69636;52.372;13.610;2023-07-30T04:38:35;100674.91;;;14.79;100.00
80323;BME280;69636;52.372;13.610;2023-07-30T04:41:02;100673.06;;;14.79;100.00
80323;BME280;69636;52.372;13.610;2023-07-30T04:43:29;100677.66;;;14.85;100.00
80323;BME280;69636;52.372;13.610;2023-07-30T04:45:56;100674.81;;;14.87;100.00
80323;BME280;69636;52.372;13.610;2023-07-30T04:48:25;100673.72;;;14.96;100.00
80323;BME280;69636;52.372;13.610;2023-07-30T04:50:52;100674.81;;;15.02;100.00
80323;BME280;69636;52.372;13.610;2023-07-30T04:53:20;100670.13;;;15.04;100.00
80323;BME280;69636;52.372;13.610;2023-07-30T04:55:47;100672.22;;;15.08;100.00
80323;BME280;69636;52.372;13.610;2023-07-30T04:58:14;100677.78;;;15.07;100.00
80323;BME280;69636;52.372;13.610;2023-07-30T05:00:43;100681.84;;;15.03;100.00
80323;BME280;69636;52.372;13.610;2023-07-30T05:03:10;100678.16;;;15.04;100.00
80323;BME280;69636;52.372;13.610;2023-07-30T05:05:39;100683.19;;;15.13;100.00
80323;BME280;69636;52.372;13.610;2023-07-30T05:08:06;100684.03;;;15.28;100.00
80323;BME280;69636;52.372;13.610;2023-07-30T05:10:34;100687.16;;;15.47;100.00
80323;BME280;69636;52.372;13.610;2023-07-30T05:13:01;100684.22;;;15.56;100.00
80323;BME280;69636;52.372;13.610;2023-07-30T05:15:28;100680.03;;;15.69;100.00
80323;BME280;69636;52.372;13.610;2023-07-30T05:17:56;100671.25;;;15.75;100.00
80323;BME280;69636;52.372;13.610;2023-07-30T05:20:23;100679.59;;;15.86;100.00
80323;BME280;69636;52.372;13.610;2023-07-30T05:22:52;100677.38;;;15.90;100.00
80323;BME280;69636;52.372;13.610;2023-07-30T05:25:19;100676.91;;;16.01;100.00
80323;BME280;69636;52.372;13.610;2023-07-30T05:27:46;100681.53;;;16.14;100.00
80323;BME280;69636;52.372;13.610;2023-07-30T05:30:13;100685.50;;;16.18;100.00
80323;BME280;69636;52.372;13.610;2023-07-30T05:32:41;100679.19;;;16.25;100.00
80323;BME280;69636;52.372;13.610;2023-07-30T05:35:08;100682.88;;;16.24;100.00
80323;BME280;69636;52.372;13.610;2023-07-30T05:37:36;100674.22;;;16.22;100.00
80323;BME280;69636;52.372;13.610;2023-07-30T05:40:06;100685.09;;;16.42;100.00
80323;BME280;69636;52.372;13.610;2023-07-30T05:42:33;100683.44;;;16.41;100.00
80323;BME280;69636;52.372;13.610;2023-07-30T05:45:01;100688.03;;;16.47;100.00
80323;BME280;69636;52.372;13.610;2023-07-30T05:47:28;100691.28;;;16.43;100.00
80323;BME280;69636;52.372;13.610;2023-07-30T05:49:55;100686.75;;;16.43;100.00
80323;BME280;69636;52.372;13.610;2023-07-30T05:52:22;100683.88;;;16.45;100.00
80323;BME280;69636;52.372;13.610;2023-07-30T05:54:50;100686.44;;;16.53;100.00
80323;BME280;69636;52.372;13.610;2023-07-30T05:57:18;100674.81;;;16.67;100.00
80323;BME280;69636;52.372;13.610;2023-07-30T05:59:46;100678.78;;;16.71;100.00
80323;BME280;69636;52.372;13.610;2023-07-30T06:02:13;100686.03;;;16.77;100.00
80323;BME280;69636;52.372;13.610;2023-07-30T06:04:40;100680.91;;;16.82;100.00
80323;BME280;69636;52.372;13.610;2023-07-30T06:07:08;100684.31;;;16.98;100.00
80323;BME280;69636;52.372;13.610;2023-07-30T06:09:35;100686.06;;;17.18;100.00
80323;BME280;69636;52.372;13.610;2023-07-30T06:12:03;100687.44;;;17.42;100.00
80323;BME280;69636;52.372;13.610;2023-07-30T06:14:31;100685.78;;;17.41;100.00
80323;BME280;69636;52.372;13.610;2023-07-30T06:16:58;100687.00;;;17.32;100.00
80323;BME280;69636;52.372;13.610;2023-07-30T06:19:27;100678.94;;;17.32;100.00
80323;BME280;69636;52.372;13.610;2023-07-30T06:21:54;100688.69;;;17.46;100.00
80323;BME280;69636;52.372;13.610;2023-07-30T06:24:21;100683.84;;;17.63;100.00
80323;BME280;69636;52.372;13.610;2023-07-30T06:26:49;100687.59;;;17.75;100.00
80323;BME280;69636;52.372;13.610;2023-07-30T06:29:16;100692.19;;;17.81;100.00
80323;BME280;69636;52.372;13.610;2023-07-30T06:31:45;100685.34;;;17.79;100.00
80323;BME280;69636;52.372;13.610;2023-07-30T06:34:12;100695.22;;;17.72;100.00
80323;BME280;69636;52.372;13.610;2023-07-30T06:36:40;100692.13;;;17.68;100.00
80323;BME280;69636;52.372;13.610;2023-07-30T06:39:07;100699.94;;;17.63;100.00
80323;BME280;69636;52.372;13.610;2023-07-30T06:41:34;100699.94;;;17.63;100.00
80323;BME280;69636;52.372;13.610;2023-07-30T06:44:02;100694.56;;;17.63;100.00
80323;BME280;69636;52.372;13.610;2023-07-30T06:46:30;100698.09;;;17.63;100.00
80323;BME280;69636;52.372;13.610;2023-07-30T06:48:58;100697.72;;;17.67;100.00
80323;BME280;69636;52.372;13.610;2023-07-30T06:51:26;100698.78;;;17.79;100.00
80323;BME280;69636;52.372;13.610;2023-07-30T06:53:54;100699.03;;;17.97;100.00
80323;BME280;69636;52.372;13.610;2023-07-30T06:56:21;100690.56;;;18.00;100.00
80323;BME280;69636;52.372;13.610;2023-07-30T06:58:48;100699.03;;;17.97;99.64
80323;BME280;69636;52.372;13.610;2023-07-30T07:01:16;100696.38;;;18.04;98.29
80323;BME280;69636;52.372;13.610;2023-07-30T07:03:43;100698.03;;;18.11;97.68
80323;BME280;69636;52.372;13.610;2023-07-30T07:06:12;100698.03;;;18.24;98.48
80323;BME280;69636;52.372;13.610;2023-07-30T07:08:39;100697.25;;;18.37;97.81
80323;BME280;69636;52.372;13.610;2023-07-30T07:11:07;100705.53;;;18.42;98.64
80323;BME280;69636;52.372;13.610;2023-07-30T07:13:34;100699.94;;;18.50;97.22
80323;BME280;69636;52.372;13.610;2023-07-30T07:16:01;100696.22;;;18.58;96.10
80323;BME280;69636;52.372;13.610;2023-07-30T07:18:29;100697.25;;;18.77;94.42
80323;BME280;69636;52.372;13.610;2023-07-30T07:20:56;100692.91;;;18.95;93.90
80323;BME280;69636;52.372;13.610;2023-07-30T07:23:25;100690.19;;;19.22;93.12
80323;BME280;69636;52.372;13.610;2023-07-30T07:25:52;100688.09;;;19.17;93.36
80323;BME280;69636;52.372;13.610;2023-07-30T07:28:20;100685.44;;;19.11;93.10
80323;BME280;69636;52.372;13.610;2023-07-30T07:30:47;100684.59;;;19.17;92.24
80323;BME280;69636;52.372;13.610;2023-07-30T07:33:15;100676.84;;;19.40;91.61
80323;BME280;69636;52.372;13.610;2023-07-30T07:35:42;100681.03;;;19.23;90.39
80323;BME280;69636;52.372;13.610;2023-07-30T07:38:09;100672.59;;;19.13;91.58
80323;BME280;69636;52.372;13.610;2023-07-30T07:40:38;100665.06;;;19.28;91.75
80323;BME280;69636;52.372;13.610;2023-07-30T07:43:06;100675.38;;;19.51;90.76
80323;BME280;69636;52.372;13.610;2023-07-30T07:45:33;100675.09;;;19.72;91.06
80323;BME280;69636;52.372;13.610;2023-07-30T07:48:01;100673.84;;;19.75;89.89
80323;BME280;69636;52.372;13.610;2023-07-30T07:50:28;100672.88;;;20.01;92.56
80323;BME280;69636;52.372;13.610;2023-07-30T07:52:56;100675.66;;;20.12;87.19
80323;BME280;69636;52.372;13.610;2023-07-30T07:55:23;100675.66;;;20.12;88.25
80323;BME280;69636;52.372;13.610;2023-07-30T07:57:52;100683.03;;;19.98;87.13
80323;BME280;69636;52.372;13.610;2023-07-30T08:00:19;100679.28;;;19.99;89.55
80323;BME280;69636;52.372;13.610;2023-07-30T08:02:47;100682.66;;;19.88;89.07
80323;BME280;69636;52.372;13.610;2023-07-30T08:05:17;100679.66;;;19.72;88.45
80323;BME280;69636;52.372;13.610;2023-07-30T08:07:45;100680.00;;;19.82;88.56
80323;BME280;69636;52.372;13.610;2023-07-30T08:10:13;100677.50;;;19.87;88.71
80323;BME280;69636;52.372;13.610;2023-07-30T08:12:40;100676.81;;;19.98;89.38
80323;BME280;69636;52.372;13.610;2023-07-30T08:15:09;100680.66;;;20.09;88.70
80323;BME280;69636;52.372;13.610;2023-07-30T08:17:36;100675.59;;;20.25;87.48
80323;BME280;69636;52.372;13.610;2023-07-30T08:20:05;100684.66;;;20.38;86.22
80323;BME280;69636;52.372;13.610;2023-07-30T08:22:33;100686.22;;;20.52;84.29
80323;BME280;69636;52.372;13.610;2023-07-30T08:25:01;100679.84;;;20.64;84.92
80323;BME280;69636;52.372;13.610;2023-07-30T08:27:29;100680.63;;;20.72;83.02
80323;BME280;69636;52.372;13.610;2023-07-30T08:29:56;100685.00;;;20.91;84.35
80323;BME280;69636;52.372;13.610;2023-07-30T08:32:25;100684.03;;;20.85;83.29
80323;BME280;69636;52.372;13.610;2023-07-30T08:34:54;100692.13;;;20.85;81.92
80323;BME280;69636;52.372;13.610;2023-07-30T08:37:22;100689.34;;;20.92;81.10
80323;BME280;69636;52.372;13.610;2023-07-30T08:39:49;100686.28;;;21.07;81.84
80323;BME280;69636;52.372;13.610;2023-07-30T08:42:17;100684.38;;;21.32;79.53
80323;BME280;69636;52.372;13.610;2023-07-30T08:44:44;100683.03;;;21.23;76.83
80323;BME280;69636;52.372;13.610;2023-07-30T08:47:11;100675.56;;;21.25;77.75
80323;BME280;69636;52.372;13.610;2023-07-30T08:49:40;100673.97;;;21.54;76.56
80323;BME280;69636;52.372;13.610;2023-07-30T08:52:09;100683.75;;;21.96;75.59
80323;BME280;69636;52.372;13.610;2023-07-30T08:54:38;100668.09;;;22.17;74.34
80323;BME280;69636;52.372;13.610;2023-07-30T08:57:06;100674.75;;;22.67;72.79
80323;BME280;69636;52.372;13.610;2023-07-30T08:59:38;100670.59;;;23.58;70.34
80323;BME280;69636;52.372;13.610;2023-07-30T09:02:13;100674.84;;;24.78;65.88
80323;BME280;69636;52.372;13.610;2023-07-30T09:04:47;100674.75;;;25.50;60.29
80323;BME280;69636;52.372;13.610;2023-07-30T09:07:16;100681.41;;;25.16;60.54
80323;BME280;69636;52.372;13.610;2023-07-30T09:09:44;100670.59;;;25.21;60.62
80323;BME280;69636;52.372;13.610;2023-07-30T09:12:13;100671.53;;;25.10;59.23
80323;BME280;69636;52.372;13.610;2023-07-30T09:14:41;100680.63;;;26.72;54.87
80323;BME280;69636;52.372;13.610;2023-07-30T09:17:08;100669.28;;;26.48;52.71
80323;BME280;69636;52.372;13.610;2023-07-30T09:19:35;100674.91;;;26.73;51.89
80323;BME280;69636;52.372;13.610;2023-07-30T09:22:05;100675.34;;;26.01;55.05
80323;BME280;69636;52.372;13.610;2023-07-30T09:24:33;100662.81;;;26.59;54.88
80323;BME280;69636;52.372;13.610;2023-07-30T09:27:01;100676.00;;;26.77;54.04
80323;BME280;69636;52.372;13.610;2023-07-30T09:29:30;100682.47;;;25.58;54.82
80323;BME280;69636;52.372;13.610;2023-07-30T09:31:57;100681.75;;;26.44;52.36
80323;BME280;69636;52.372;13.610;2023-07-30T09:34:27;100689.50;;;26.03;51.31
80323;BME280;69636;52.372;13.610;2023-07-30T09:36:54;100688.13;;;24.58;55.55
80323;BME280;69636;52.372;13.610;2023-07-30T09:39:24;100689.47;;;23.82;55.40
80323;BME280;69636;52.372;13.610;2023-07-30T09:41:53;100693.97;;;23.76;57.66
80323;BME280;69636;52.372;13.610;2023-07-30T09:44:26;100687.81;;;23.29;58.14
80323;BME280;69636;52.372;13.610;2023-07-30T09:46:56;100696.13;;;23.91;57.60
80323;BME280;69636;52.372;13.610;2023-07-30T09:49:23;100689.00;;;24.47;54.92
80323;BME280;69636;52.372;13.610;2023-07-30T09:51:53;100700.69;;;23.74;57.76
80323;BME280;69636;52.372;13.610;2023-07-30T09:54:22;100695.94;;;23.81;57.49
80323;BME280;69636;52.372;13.610;2023-07-30T09:56:51;100700.00;;;23.66;57.02
80323;BME280;69636;52.372;13.610;2023-07-30T09:59:18;100702.03;;;23.59;58.25
80323;BME280;69636;52.372;13.610;2023-07-30T10:01:48;100695.75;;;24.78;55.56
80323;BME280;69636;52.372;13.610;2023-07-30T10:04:19;100697.06;;;24.92;53.47
80323;BME280;69636;52.372;13.610;2023-07-30T10:06:50;100691.41;;;25.76;51.12
80323;BME280;69636;52.372;13.610;2023-07-30T10:09:19;100694.81;;;25.88;49.73
80323;BME280;69636;52.372;13.610;2023-07-30T10:11:49;100699.88;;;24.80;51.54
80323;BME280;69636;52.372;13.610;2023-07-30T10:14:22;100701.28;;;24.21;52.89
80323;BME280;69636;52.372;13.610;2023-07-30T10:16:51;100701.34;;;23.52;54.84
80323;BME280;69636;52.372;13.610;2023-07-30T10:19:22;100710.09;;;23.83;54.73
80323;BME280;69636;52.372;13.610;2023-07-30T10:21:50;100707.09;;;25.08;50.88
80323;BME280;69636;52.372;13.610;2023-07-30T10:24:17;100710.09;;;25.50;50.08
80323;BME280;69636;52.372;13.610;2023-07-30T10:26:45;100709.66;;;24.19;52.51
80323;BME280;69636;52.372;13.610;2023-07-30T10:29:15;100703.16;;;24.49;52.62
80323;BME280;69636;52.372;13.610;2023-07-30T10:31:48;100710.47;;;25.37;53.17
80323;BME280;69636;52.372;13.610;2023-07-30T10:34:16;100700.75;;;25.02;51.00
80323;BME280;69636;52.372;13.610;2023-07-30T10:36:44;100693.03;;;25.77;47.80
80323;BME280;69636;52.372;13.610;2023-07-30T10:39:14;100693.16;;;26.73;47.83
80323;BME280;69636;52.372;13.610;2023-07-30T10:41:46;100706.63;;;26.94;46.26
80323;BME280;69636;52.372;13.610;2023-07-30T10:44:24;100700.09;;;27.37;44.70
80323;BME280;69636;52.372;13.610;2023-07-30T10:46:53;100703.34;;;26.28;45.48
80323;BME280;69636;52.372;13.610;2023-07-30T10:49:20;100701.50;;;25.36;48.19
80323;BME280;69636;52.372;13.610;2023-07-30T10:51:48;100713.53;;;24.68;50.53
80323;BME280;69636;52.372;13.610;2023-07-30T10:54:15;100714.69;;;24.56;50.15
80323;BME280;69636;52.372;13.610;2023-07-30T10:56:43;100711.88;;;25.01;48.29
80323;BME280;69636;52.372;13.610;2023-07-30T10:59:10;100707.63;;;25.27;47.65
80323;BME280;69636;52.372;13.610;2023-07-30T11:01:40;100707.59;;;24.55;49.08
80323;BME280;69636;52.372;13.610;2023-07-30T11:04:09;100694.94;;;25.54;48.33
80323;BME280;69636;52.372;13.610;2023-07-30T11:06:37;100694.59;;;25.67;45.33
80323;BME280;69636;52.372;13.610;2023-07-30T11:09:05;100707.94;;;24.75;47.27
80323;BME280;69636;52.372;13.610;2023-07-30T11:11:32;100704.94;;;24.26;49.24
80323;BME280;69636;52.372;13.610;2023-07-30T11:14:00;100707.97;;;23.85;50.50
80323;BME280;69636;52.372;13.610;2023-07-30T11:16:27;100707.22;;;23.61;50.59
80323;BME280;69636;52.372;13.610;2023-07-30T11:18:56;100699.41;;;24.66;49.15
80323;BME280;69636;52.372;13.610;2023-07-30T11:21:23;100686.06;;;24.65;49.50
80323;BME280;69636;52.372;13.610;2023-07-30T11:23:51;100690.09;;;24.17;48.84
80323;BME280;69636;52.372;13.610;2023-07-30T11:26:19;100696.53;;;23.83;51.03
80323;BME280;69636;52.372;13.610;2023-07-30T11:28:47;100695.50;;;24.00;49.99
80323;BME280;69636;52.372;13.610;2023-07-30T11:31:16;100691.38;;;23.98;49.80
80323;BME280;69636;52.372;13.610;2023-07-30T11:33:44;100687.63;;;24.61;49.94
80323;BME280;69636;52.372;13.610;2023-07-30T11:36:15;100691.13;;;23.83;51.25
80323;BME280;69636;52.372;13.610;2023-07-30T11:38:43;100682.75;;;23.32;53.93
80323;BME280;69636;52.372;13.610;2023-07-30T11:41:12;100690.53;;;23.29;52.48
80323;BME280;69636;52.372;13.610;2023-07-30T11:43:41;100689.44;;;23.42;54.21
80323;BME280;69636;52.372;13.610;2023-07-30T11:46:11;100674.66;;;24.18;51.20
80323;BME280;69636;52.372;13.610;2023-07-30T11:48:40;100676.09;;;24.70;51.32
80323;BME280;69636;52.372;13.610;2023-07-30T11:51:23;100665.78;;;25.28;47.74
80323;BME280;69636;52.372;13.610;2023-07-30T11:53:51;100676.84;;;25.87;47.65
80323;BME280;69636;52.372;13.610;2023-07-30T11:56:23;100685.31;;;25.25;47.71
80323;BME280;69636;52.372;13.610;2023-07-30T11:58:54;100678.50;;;24.33;48.81
80323;BME280;69636;52.372;13.610;2023-07-30T12:01:24;100680.56;;;24.60;49.15
80323;BME280;69636;52.372;13.610;2023-07-30T12:03:54;100675.00;;;25.27;46.74
80323;BME280;69636;52.372;13.610;2023-07-30T12:06:23;100675.59;;;25.29;46.20
80323;BME280;69636;52.372;13.610;2023-07-30T12:08:50;100679.88;;;25.47;46.90
80323;BME280;69636;52.372;13.610;2023-07-30T12:11:18;100680.59;;;25.59;43.66
80323;BME280;69636;52.372;13.610;2023-07-30T12:13:46;100681.59;;;24.92;45.61
80323;BME280;69636;52.372;13.610;2023-07-30T12:16:13;100667.78;;;24.77;47.81
80323;BME280;69636;52.372;13.610;2023-07-30T12:18:41;100676.28;;;24.64;48.44
80323;BME280;69636;52.372;13.610;2023-07-30T12:21:08;100668.59;;;24.94;47.10
80323;BME280;69636;52.372;13.610;2023-07-30T12:23:37;100669.00;;;24.86;46.51
80323;BME280;69636;52.372;13.610;2023-07-30T12:26:04;100664.94;;;24.67;45.20
80323;BME280;69636;52.372;13.610;2023-07-30T12:28:32;100662.16;;;25.00;46.64
80323;BME280;69636;52.372;13.610;2023-07-30T12:31:00;100668.81;;;25.31;45.87
80323;BME280;69636;52.372;13.610;2023-07-30T12:33:27;100672.03;;;25.94;45.48
80323;BME280;69636;52.372;13.610;2023-07-30T12:35:55;100667.41;;;26.21;43.72
80323;BME280;69636;52.372;13.610;2023-07-30T12:38:22;100666.91;;;25.71;43.88